Time;durP1;ratioP1;P1;durP2;ratioP2;P2;SDS_P1;SDS_P2;PMS_P1;PMS_P2;Temp;Humidity;BMP_temperature;BMP_pressure;BME280_temperature;BME280_humidity;BME280_pressure;Samples;Min_cycle;Max_cycle;Signal;HPM_P1;HPM_P2
2022/03/03 00:00:23;;;;;;;77.13;37.40;;;2.10;99.90;;;;;;6211844;23;20029;-84
2022/03/03 00:02:49;;;;;;;77.90;38.72;;;2.10;99.90;;;;;;6211690;23;20027;-83
2022/03/03 00:05:14;;;;;;;74.07;37.15;;;2.10;99.90;;;;;;6211858;23;20092;-83
2022/03/03 00:07:40;;;;;;;75.80;39.08;;;2.10;99.90;;;;;;6211612;23;20020;-82
2022/03/03 00:10:08;;;;;;;77.20;36.60;;;2.10;99.90;;;;;;6211814;23;20326;-84
2022/03/03 00:12:34;;;;;;;70.55;37.00;;;2.10;99.90;;;;;;6211333;23;20353;-83
2022/03/03 00:15:00;;;;;;;75.00;36.38;;;2.00;99.90;;;;;;6212631;23;20042;-83
2022/03/03 00:17:26;;;;;;;72.70;36.50;;;2.00;99.90;;;;;;6185828;23;20027;-83
2022/03/03 00:19:52;;;;;;;82.57;36.80;;;2.00;99.90;;;;;;6213252;23;20099;-84
2022/03/03 00:22:17;;;;;;;82.45;38.13;;;2.00;99.90;;;;;;6213578;23;20094;-84
2022/03/03 00:24:43;;;;;;;65.82;34.20;;;2.00;99.90;;;;;;6160514;23;20487;-84
2022/03/03 00:27:09;;;;;;;72.80;37.05;;;2.00;99.90;;;;;;6213444;23;20016;-84
2022/03/03 00:29:35;;;;;;;64.70;35.03;;;2.80;99.90;;;;;;6187048;23;20402;-85
2022/03/03 00:32:01;;;;;;;74.43;35.55;;;1.90;99.90;;;;;;6186430;23;20051;-83
2022/03/03 00:34:26;;;;;;;73.60;36.10;;;1.90;99.90;;;;;;6186996;23;20013;-83
2022/03/03 00:36:53;;;;;;;73.15;35.25;;;1.90;99.90;;;;;;6213094;23;20454;-84
2022/03/03 00:39:20;;;;;;;75.28;35.60;;;1.90;99.90;;;;;;6186357;23;20027;-84
2022/03/03 00:41:45;;;;;;;67.97;34.95;;;1.90;99.90;;;;;;6213464;23;20009;-85
2022/03/03 00:44:11;;;;;;;71.10;35.38;;;2.80;99.90;;;;;;6186045;23;20480;-83
2022/03/03 00:46:38;;;;;;;80.55;37.30;;;1.80;99.90;;;;;;6213697;23;20012;-84
2022/03/03 00:49:04;;;;;;;71.45;35.60;;;1.80;99.90;;;;;;6213579;23;20381;-84
2022/03/03 00:51:29;;;;;;;69.35;34.63;;;1.70;99.90;;;;;;6186274;23;20035;-83
2022/03/03 00:53:56;;;;;;;70.70;35.92;;;1.70;99.90;;;;;;6186091;23;20631;-82
2022/03/03 00:56:21;;;;;;;83.43;36.15;;;2.70;99.90;;;;;;6213078;23;20055;-85
2022/03/03 00:58:47;;;;;;;68.50;34.88;;;1.70;99.90;;;;;;6185129;23;20020;-84
2022/03/03 01:01:14;;;;;;;65.85;35.08;;;2.70;99.90;;;;;;6212866;23;20501;-84
2022/03/03 01:03:40;;;;;;;69.30;36.03;;;1.60;99.90;;;;;;6213023;23;20048;-84
2022/03/03 01:06:06;;;;;;;78.97;36.88;;;1.60;99.90;;;;;;6186127;23;20346;-84
2022/03/03 01:08:32;;;;;;;71.40;36.83;;;1.60;99.90;;;;;;6213056;23;20026;-82
2022/03/03 01:10:58;;;;;;;71.95;36.33;;;1.50;99.90;;;;;;6212868;23;20442;-84
2022/03/03 01:13:23;;;;;;;73.13;37.30;;;1.50;99.90;;;;;;6185891;23;20335;-84
2022/03/03 01:15:50;;;;;;;70.63;35.95;;;1.40;99.90;;;;;;6212760;23;20403;-84
2022/03/03 01:18:17;;;;;;;71.05;34.40;;;1.40;99.90;;;;;;6160408;23;20020;-84
2022/03/03 01:20:43;;;;;;;78.78;38.20;;;1.40;99.90;;;;;;6185614;23;20032;-83
2022/03/03 01:23:09;;;;;;;69.28;34.95;;;1.40;99.90;;;;;;6160520;23;20323;-84
2022/03/03 01:25:34;;;;;;;69.18;34.67;;;1.30;99.90;;;;;;6185266;23;20342;-83
2022/03/03 01:28:00;;;;;;;77.60;36.97;;;1.30;99.90;;;;;;6185799;23;20017;-84
2022/03/03 01:30:26;;;;;;;71.55;35.65;;;1.30;99.90;;;;;;6186105;23;20020;-84
2022/03/03 01:32:51;;;;;;;70.55;36.25;;;1.10;99.90;;;;;;6185844;23;20095;-84
2022/03/03 01:35:17;;;;;;;76.00;37.40;;;1.20;99.90;;;;;;6185942;23;20350;-84
2022/03/03 01:37:43;;;;;;;69.95;35.03;;;1.10;99.90;;;;;;6212904;23;20021;-84
2022/03/03 01:40:10;;;;;;;71.97;35.63;;;1.10;99.90;;;;;;6212426;23;20024;-82
2022/03/03 01:42:36;;;;;;;71.80;35.60;;;1.10;99.90;;;;;;6212740;23;20098;-85
2022/03/03 01:45:03;;;;;;;63.13;34.83;;;1.00;99.90;;;;;;6185794;23;20024;-84
2022/03/03 01:47:29;;;;;;;74.45;36.30;;;1.00;99.90;;;;;;6212697;23;20323;-83
2022/03/03 01:49:56;;;;;;;72.28;36.42;;;0.90;99.90;;;;;;6185465;23;20020;-84
2022/03/03 01:52:23;;;;;;;76.10;35.55;;;0.90;99.90;;;;;;6185692;23;20052;-84
2022/03/03 01:54:49;;;;;;;75.10;36.15;;;0.80;99.90;;;;;;6212216;23;20017;-85
2022/03/03 01:57:19;;;;;;;74.15;35.80;;;0.80;99.90;;;;;;6211944;23;20131;-83
2022/03/03 01:59:45;;;;;;;67.50;33.00;;;0.80;99.90;;;;;;6185825;23;20020;-83
2022/03/03 02:02:11;;;;;;;73.95;35.90;;;0.70;99.90;;;;;;6213203;23;20016;-85
2022/03/03 02:04:40;;;;;;;74.25;35.20;;;0.70;99.90;;;;;;6185967;23;20019;-85
2022/03/03 02:07:07;;;;;;;74.10;36.88;;;0.70;99.90;;;;;;6212946;23;20016;-84
2022/03/03 02:09:34;;;;;;;72.72;35.58;;;0.60;99.90;;;;;;6212531;23;20016;-85
2022/03/03 02:12:00;;;;;;;77.07;36.97;;;0.60;99.90;;;;;;6185004;23;20017;-84
2022/03/03 02:14:26;;;;;;;73.07;34.70;;;0.60;99.90;;;;;;6212739;23;20063;-85
2022/03/03 02:16:51;;;;;;;72.55;36.95;;;0.60;99.90;;;;;;6212590;23;20017;-84
2022/03/03 02:19:19;;;;;;;74.95;37.20;;;0.50;99.90;;;;;;6212519;23;20327;-84
2022/03/03 02:21:50;;;;;;;75.15;35.13;;;0.50;99.90;;;;;;6211998;23;20440;-82
2022/03/03 02:24:17;;;;;;;78.68;37.38;;;0.50;99.90;;;;;;6185429;23;20021;-85
2022/03/03 02:26:45;;;;;;;75.65;35.95;;;0.50;99.90;;;;;;6212916;23;20016;-84
2022/03/03 02:29:11;;;;;;;75.20;36.15;;;0.40;99.90;;;;;;6185432;23;20020;-84
2022/03/03 02:31:36;;;;;;;68.35;34.45;;;0.40;99.90;;;;;;6210370;23;20088;-84
2022/03/03 02:34:02;;;;;;;74.10;34.65;;;0.40;99.90;;;;;;6211975;23;20100;-84
2022/03/03 02:36:29;;;;;;;74.90;35.45;;;0.40;99.90;;;;;;6212249;23;20020;-84
2022/03/03 02:39:00;;;;;;;64.80;34.05;;;0.40;99.90;;;;;;6185038;23;20031;-83
2022/03/03 02:41:27;;;;;;;74.53;36.88;;;1.50;99.90;;;;;;6185189;23;20013;-84
2022/03/03 02:43:53;;;;;;;76.78;35.60;;;0.30;99.90;;;;;;6211636;23;20017;-85
2022/03/03 02:46:19;;;;;;;75.78;35.17;;;0.30;99.90;;;;;;6212185;23;20024;-84
2022/03/03 02:48:45;;;;;;;74.47;36.90;;;0.30;99.90;;;;;;6212220;23;20017;-83
2022/03/03 02:51:12;;;;;;;71.47;34.05;;;0.30;99.90;;;;;;6185586;23;20008;-85
2022/03/03 02:53:38;;;;;;;73.95;36.45;;;0.20;99.90;;;;;;6212123;23;20009;-85
2022/03/03 02:56:05;;;;;;;77.50;34.83;;;0.20;99.90;;;;;;6212213;23;20017;-85
2022/03/03 02:58:31;;;;;;;78.30;37.47;;;0.20;99.90;;;;;;6211659;23;20056;-84
2022/03/03 03:00:57;;;;;;;76.72;34.25;;;0.20;99.90;;;;;;6184092;23;20013;-83
2022/03/03 03:03:22;;;;;;;72.57;35.75;;;0.20;99.90;;;;;;6184889;23;20450;-84
2022/03/03 03:05:48;;;;;;;73.22;35.50;;;0.20;99.90;;;;;;6211838;23;20453;-85
2022/03/03 03:08:15;;;;;;;65.18;32.67;;;0.10;99.90;;;;;;6211814;23;20450;-84
2022/03/03 03:10:42;;;;;;;73.68;34.88;;;0.10;99.90;;;;;;6185477;23;20083;-85
2022/03/03 03:13:10;;;;;;;76.22;35.65;;;0.10;99.90;;;;;;6211431;23;20016;-85
2022/03/03 03:15:36;;;;;;;67.63;33.92;;;0.10;99.90;;;;;;6184796;23;20600;-83
2022/03/03 03:18:11;;;;;;;79.60;37.10;;;0.10;99.90;;;;;;6211675;23;20020;-83
2022/03/03 03:20:39;;;;;;;77.38;37.60;;;1.10;99.90;;;;;;6184932;23;20016;-84
2022/03/03 03:23:06;;;;;;;74.47;34.03;;;0.10;99.90;;;;;;6184716;23;20025;-84
2022/03/03 03:25:32;;;;;;;71.35;34.20;;;0.10;99.90;;;;;;6184926;23;20020;-84
2022/03/03 03:27:58;;;;;;;75.53;35.67;;;0.00;99.90;;;;;;6211986;23;20016;-84
2022/03/03 03:30:24;;;;;;;73.45;35.13;;;0.10;99.90;;;;;;6211519;23;20051;-82
2022/03/03 03:32:49;;;;;;;74.22;36.15;;;0.00;99.90;;;;;;6211254;23;20025;-82
2022/03/03 03:35:15;;;;;;;72.70;34.35;;;0.10;99.90;;;;;;6211409;23;20025;-84
2022/03/03 03:37:41;;;;;;;71.00;33.47;;;0.10;99.90;;;;;;6184858;23;20027;-84
2022/03/03 03:40:08;;;;;;;73.82;34.13;;;0.00;99.90;;;;;;6211857;23;20055;-84
2022/03/03 03:42:34;;;;;;;74.88;35.55;;;0.00;99.90;;;;;;6184858;23;20052;-84
2022/03/03 03:45:00;;;;;;;69.32;35.60;;;0.00;99.90;;;;;;6211334;23;20024;-85
2022/03/03 03:47:25;;;;;;;81.30;35.78;;;0.00;99.90;;;;;;6184988;23;20439;-84
2022/03/03 03:49:51;;;;;;;67.55;35.30;;;0.00;99.90;;;;;;6185989;23;20074;-84
2022/03/03 03:52:17;;;;;;;64.78;32.67;;;0.00;99.90;;;;;;6186564;23;20031;-84
2022/03/03 03:54:43;;;;;;;72.90;35.50;;;0.00;99.90;;;;;;6213349;23;20454;-83
2022/03/03 03:57:08;;;;;;;71.15;33.35;;;0.00;99.90;;;;;;6213809;23;20019;-83
2022/03/03 03:59:35;;;;;;;77.68;35.90;;;0.00;99.90;;;;;;6186673;23;20024;-83
2022/03/03 04:02:00;;;;;;;81.35;36.63;;;0.00;99.90;;;;;;6186175;23;20518;-83
2022/03/03 04:04:26;;;;;;;79.00;34.50;;;0.00;99.90;;;;;;6213552;23;20023;-84
2022/03/03 04:06:52;;;;;;;76.60;35.58;;;0.00;99.90;;;;;;6213920;23;20031;-84
2022/03/03 04:09:17;;;;;;;73.43;33.05;;;0.00;99.90;;;;;;6213436;23;20350;-84
2022/03/03 04:11:43;;;;;;;76.68;35.38;;;0.00;99.90;;;;;;6186776;23;20029;-82
2022/03/03 04:14:09;;;;;;;71.43;33.65;;;0.00;99.90;;;;;;6213809;23;20023;-84
2022/03/03 04:16:35;;;;;;;61.75;31.98;;;0.00;99.90;;;;;;6213141;23;20028;-83
2022/03/03 04:19:01;;;;;;;71.25;34.13;;;0.00;99.90;;;;;;6213627;23;20329;-84
2022/03/03 04:21:27;;;;;;;68.22;32.75;;;0.00;99.90;;;;;;6212855;23;20028;-82
2022/03/03 04:23:53;;;;;;;66.88;33.45;;;0.80;99.90;;;;;;6185946;23;20028;-84
2022/03/03 04:26:18;;;;;;;65.80;32.72;;;0.00;99.90;;;;;;6161872;23;20438;-83
2022/03/03 04:28:44;;;;;;;67.53;31.92;;;0.00;99.90;;;;;;6213415;23;20016;-82
2022/03/03 04:31:10;;;;;;;66.32;32.65;;;0.00;99.90;;;;;;6213157;23;20102;-82
2022/03/03 04:33:36;;;;;;;62.70;31.90;;;0.00;99.90;;;;;;6185759;23;20017;-85
2022/03/03 04:36:02;;;;;;;65.70;32.58;;;0.00;99.90;;;;;;6213472;23;20024;-83
2022/03/03 04:38:27;;;;;;;65.50;32.50;;;0.00;99.90;;;;;;6213161;23;20031;-83
2022/03/03 04:40:53;;;;;;;65.70;32.13;;;0.00;99.90;;;;;;6186534;23;20028;-84
2022/03/03 04:43:19;;;;;;;62.40;31.08;;;0.00;99.90;;;;;;6213400;23;20021;-84
2022/03/03 04:45:44;;;;;;;60.60;31.00;;;-0.10;99.90;;;;;;6213580;23;20346;-82
2022/03/03 04:48:10;;;;;;;62.40;31.67;;;0.00;99.90;;;;;;6213417;23;20020;-84
2022/03/03 04:50:36;;;;;;;59.30;31.00;;;-0.10;99.90;;;;;;6161671;23;20027;-86
2022/03/03 04:53:02;;;;;;;58.95;31.08;;;-0.10;99.90;;;;;;6212845;23;20140;-85
2022/03/03 04:55:27;;;;;;;58.20;29.30;;;0.70;99.90;;;;;;6213320;23;20016;-84
2022/03/03 04:57:53;;;;;;;61.67;29.88;;;-0.10;99.90;;;;;;6213142;23;20026;-83
2022/03/03 05:00:19;;;;;;;57.35;30.38;;;0.00;99.90;;;;;;6212870;23;20051;-84
2022/03/03 05:02:45;;;;;;;57.25;28.77;;;0.00;99.90;;;;;;6186320;23;20024;-83
2022/03/03 05:05:11;;;;;;;54.85;29.70;;;-0.10;99.90;;;;;;6213619;23;20016;-83
2022/03/03 05:07:37;;;;;;;58.80;29.67;;;-0.10;99.90;;;;;;6213014;23;20017;-85
2022/03/03 05:10:03;;;;;;;50.58;27.52;;;-0.10;99.90;;;;;;6186164;23;20024;-84
2022/03/03 05:12:29;;;;;;;60.22;29.20;;;-0.10;99.90;;;;;;6186335;23;20027;-84
2022/03/03 05:14:56;;;;;;;57.28;28.20;;;-0.20;99.90;;;;;;6212967;23;20020;-83
2022/03/03 05:17:22;;;;;;;58.22;28.95;;;-0.10;99.90;;;;;;6210905;23;20017;-84
2022/03/03 05:19:48;;;;;;;60.83;29.20;;;-0.10;99.90;;;;;;6212767;23;20438;-84
2022/03/03 05:22:13;;;;;;;56.80;28.40;;;-0.20;99.90;;;;;;6212870;23;20012;-83
2022/03/03 05:24:39;;;;;;;55.55;28.85;;;-0.20;99.90;;;;;;6212610;23;20021;-83
2022/03/03 05:27:05;;;;;;;58.25;29.90;;;-0.20;99.90;;;;;;6212820;23;20437;-83
2022/03/03 05:29:31;;;;;;;55.28;29.10;;;-0.20;99.90;;;;;;6212835;23;20020;-81
2022/03/03 05:32:00;;;;;;;54.78;28.77;;;-0.20;99.90;;;;;;6212628;23;20379;-81
2022/03/03 05:34:26;;;;;;;56.47;28.90;;;-0.30;99.90;;;;;;6212291;23;20016;-82
2022/03/03 05:36:52;;;;;;;52.65;27.45;;;-0.30;99.90;;;;;;6212585;23;20021;-84
2022/03/03 05:39:18;;;;;;;50.92;27.27;;;-0.30;99.90;;;;;;6212540;23;20017;-83
2022/03/03 05:41:44;;;;;;;51.35;29.08;;;-0.30;99.90;;;;;;6213371;23;20013;-83
2022/03/03 05:44:14;;;;;;;57.22;28.90;;;-0.30;99.90;;;;;;6185531;23;20029;-83
2022/03/03 05:46:42;;;;;;;52.63;28.08;;;-0.30;99.90;;;;;;6185613;23;20846;-83
2022/03/03 05:49:10;;;;;;;58.40;29.00;;;-0.30;99.90;;;;;;6185480;23;20076;-84
2022/03/03 05:51:36;;;;;;;48.95;26.83;;;-0.30;99.90;;;;;;6212899;23;20023;-83
2022/03/03 05:54:03;;;;;;;53.22;27.35;;;-0.40;99.90;;;;;;6185690;23;20450;-84
2022/03/03 05:56:34;;;;;;;53.90;26.65;;;-0.30;99.90;;;;;;6161148;23;20021;-84
2022/03/03 05:59:07;;;;;;;53.50;27.27;;;-0.30;99.90;;;;;;6212758;23;20055;-83
2022/03/03 06:01:36;;;;;;;50.92;26.90;;;-0.40;99.90;;;;;;6213061;23;20060;-83
2022/03/03 06:04:03;;;;;;;51.28;27.20;;;-0.40;99.90;;;;;;6212865;23;20334;-83
2022/03/03 06:06:31;;;;;;;53.42;27.08;;;-0.40;99.90;;;;;;6185756;23;20091;-83
2022/03/03 06:09:03;;;;;;;59.33;29.40;;;-0.40;99.90;;;;;;6212399;23;20021;-83
2022/03/03 06:11:29;;;;;;;52.45;26.13;;;-0.40;99.90;;;;;;6185486;23;20132;-83
2022/03/03 06:14:08;;;;;;;58.30;29.30;;;-0.50;99.90;;;;;;6212439;23;20016;-83
2022/03/03 06:16:35;;;;;;;55.75;29.23;;;-0.50;99.90;;;;;;6211959;23;20012;-84
2022/03/03 06:19:02;;;;;;;55.42;28.00;;;-0.50;99.90;;;;;;6212333;23;20021;-82
2022/03/03 06:21:29;;;;;;;56.70;28.63;;;-0.50;99.90;;;;;;6211621;23;20016;-83
2022/03/03 06:23:55;;;;;;;52.17;27.95;;;-0.50;99.90;;;;;;6210439;23;20028;-84
2022/03/03 06:26:22;;;;;;;55.65;28.35;;;-0.50;99.90;;;;;;6159629;23;20060;-83
2022/03/03 06:28:48;;;;;;;59.72;29.67;;;-0.50;99.90;;;;;;6212187;23;20020;-83
2022/03/03 06:31:14;;;;;;;53.03;26.73;;;-0.50;99.90;;;;;;6212792;23;20095;-84
2022/03/03 06:33:41;;;;;;;53.35;28.17;;;-0.50;99.90;;;;;;6211900;23;20438;-82
2022/03/03 06:36:08;;;;;;;54.10;28.88;;;-0.50;99.90;;;;;;6211599;23;20056;-82
2022/03/03 06:38:34;;;;;;;53.13;29.48;;;-0.50;99.90;;;;;;6184585;23;20056;-83
2022/03/03 06:41:02;;;;;;;48.80;26.30;;;-0.50;99.90;;;;;;6211871;23;20017;-81
2022/03/03 06:43:29;;;;;;;50.13;26.98;;;-0.50;99.90;;;;;;6185445;23;20027;-82
2022/03/03 06:45:58;;;;;;;54.38;28.48;;;-0.50;99.90;;;;;;6212037;23;20016;-82
2022/03/03 06:48:24;;;;;;;50.35;28.10;;;-0.60;99.90;;;;;;6211815;23;20019;-83
2022/03/03 06:50:55;;;;;;;53.60;26.67;;;-0.50;99.90;;;;;;6184389;23;20016;-83
2022/03/03 06:53:30;;;;;;;50.17;26.17;;;-0.50;99.90;;;;;;6185112;23;20043;-84
2022/03/03 06:56:06;;;;;;;51.38;27.77;;;-0.50;99.90;;;;;;6211970;23;20442;-84
2022/03/03 06:58:32;;;;;;;54.20;27.77;;;-0.50;99.90;;;;;;6211800;23;20329;-84
2022/03/03 07:01:03;;;;;;;55.40;27.30;;;-0.50;99.90;;;;;;6211516;23;20054;-84
2022/03/03 07:03:31;;;;;;;55.00;28.75;;;-0.40;99.90;;;;;;6211702;23;20047;-83
2022/03/03 07:05:57;;;;;;;51.72;27.42;;;-0.50;99.90;;;;;;6185029;23;20079;-84
2022/03/03 07:08:23;;;;;;;49.40;27.00;;;-0.40;99.90;;;;;;6184656;23;20744;-84
2022/03/03 07:10:49;;;;;;;54.42;27.73;;;-0.30;99.90;;;;;;6185135;23;20035;-84
2022/03/03 07:13:18;;;;;;;51.95;27.48;;;0.90;99.90;;;;;;6211854;23;20024;-83
2022/03/03 07:15:49;;;;;;;50.47;27.13;;;-0.30;99.90;;;;;;6184682;23;20013;-83
2022/03/03 07:18:18;;;;;;;53.80;28.63;;;-0.30;99.90;;;;;;6184982;23;20020;-83
2022/03/03 07:21:09;;;;;;;48.22;26.58;;;-0.20;99.90;;;;;;6211998;23;20023;-83
2022/03/03 07:23:39;;;;;;;53.63;27.38;;;-0.10;99.90;;;;;;6210799;23;20020;-84
2022/03/03 07:26:12;;;;;;;57.08;27.48;;;-0.10;99.90;;;;;;6211922;23;20028;-83
2022/03/03 07:28:40;;;;;;;55.30;27.50;;;0.00;99.90;;;;;;6159473;23;20115;-85
2022/03/03 07:31:08;;;;;;;57.60;29.45;;;0.00;99.90;;;;;;6211850;23;20013;-82
2022/03/03 07:33:36;;;;;;;53.67;28.55;;;0.00;99.90;;;;;;6211793;23;20066;-83
2022/03/03 07:36:03;;;;;;;52.25;29.15;;;0.80;99.90;;;;;;6212057;23;20371;-82
2022/03/03 07:38:35;;;;;;;50.55;27.05;;;0.10;99.90;;;;;;6184549;23;20476;-82
2022/03/03 07:41:02;;;;;;;53.45;28.83;;;1.10;99.90;;;;;;6211924;23;20023;-83
2022/03/03 07:43:28;;;;;;;56.10;28.13;;;0.20;99.90;;;;;;6185422;23;20044;-84
2022/03/03 07:45:54;;;;;;;55.60;29.92;;;0.30;99.90;;;;;;6211634;23;20036;-83
2022/03/03 07:48:23;;;;;;;56.90;26.65;;;0.60;99.90;;;;;;6211595;23;20676;-82
2022/03/03 07:50:50;;;;;;;61.28;29.58;;;0.40;99.90;;;;;;6212648;23;20078;-83
2022/03/03 07:53:16;;;;;;;51.05;28.50;;;0.40;99.90;;;;;;6211629;23;20028;-83
2022/03/03 07:55:51;;;;;;;49.95;27.27;;;0.50;99.90;;;;;;6211953;23;20100;-84
2022/03/03 07:58:20;;;;;;;48.38;27.52;;;1.50;99.90;;;;;;6212272;23;20012;-84
2022/03/03 08:00:51;;;;;;;52.15;28.92;;;0.60;99.90;;;;;;6184784;23;20024;-83
2022/03/03 08:03:19;;;;;;;57.92;28.25;;;0.70;99.90;;;;;;6211465;23;20087;-83
2022/03/03 08:05:49;;;;;;;52.83;28.10;;;1.80;99.90;;;;;;6211760;23;20027;-82
2022/03/03 08:08:19;;;;;;;57.28;28.85;;;0.80;99.90;;;;;;6185097;23;20122;-84
2022/03/03 08:10:46;;;;;;;52.25;28.52;;;0.90;99.90;;;;;;6211796;23;20020;-82
2022/03/03 08:13:16;;;;;;;55.17;28.90;;;1.00;99.90;;;;;;6209359;23;20021;-82
2022/03/03 08:15:43;;;;;;;57.15;29.33;;;1.00;99.90;;;;;;6209692;23;20022;-84
2022/03/03 08:18:10;;;;;;;56.58;27.80;;;1.10;99.90;;;;;;6211727;23;20017;-84
2022/03/03 08:20:38;;;;;;;57.17;29.42;;;1.20;99.90;;;;;;6184228;23;20354;-83
2022/03/03 08:23:05;;;;;;;46.80;26.10;;;1.30;99.90;;;;;;6211105;23;20016;-82
2022/03/03 08:25:31;;;;;;;57.83;28.17;;;1.40;99.90;;;;;;6158994;23;20472;-86
2022/03/03 08:27:58;;;;;;;53.67;29.23;;;2.40;99.90;;;;;;6210743;23;20517;-82
2022/03/03 08:30:24;;;;;;;50.45;28.10;;;1.60;99.90;;;;;;6183059;23;20087;-84
2022/03/03 08:33:16;;;;;;;51.10;28.40;;;1.70;99.90;;;;;;6211405;23;20027;-83
2022/03/03 08:35:49;;;;;;;49.85;27.73;;;1.80;99.90;;;;;;6185108;23;20024;-85
2022/03/03 08:38:31;;;;;;;46.70;28.02;;;2.00;99.90;;;;;;6186797;23;20016;-83
2022/03/03 08:40:59;;;;;;;50.33;26.58;;;2.10;99.90;;;;;;6213203;23;20028;-83
2022/03/03 08:43:27;;;;;;;48.05;27.23;;;2.90;99.90;;;;;;6213081;23;20009;-81
2022/03/03 08:46:02;;;;;;;54.75;27.42;;;2.30;99.90;;;;;;6186111;23;20024;-83
2022/03/03 08:48:31;;;;;;;52.33;26.85;;;2.50;99.90;;;;;;6213221;23;20047;-83
2022/03/03 08:50:58;;;;;;;44.85;25.35;;;2.50;99.90;;;;;;6211714;23;20021;-83
2022/03/03 08:53:24;;;;;;;44.42;25.60;;;2.70;99.90;;;;;;6211712;23;20020;-84
2022/03/03 08:55:53;;;;;;;45.00;27.08;;;2.80;99.90;;;;;;6213064;23;20312;-82
2022/03/03 08:58:20;;;;;;;46.13;26.05;;;3.00;99.90;;;;;;6213655;23;20096;-84
2022/03/03 09:00:48;;;;;;;46.22;25.00;;;3.10;99.90;;;;;;6186620;23;20020;-82
2022/03/03 09:03:15;;;;;;;47.15;26.63;;;3.40;99.90;;;;;;6213580;23;20080;-82
2022/03/03 09:05:41;;;;;;;43.97;25.17;;;3.50;99.90;;;;;;6213104;23;20053;-81
2022/03/03 09:08:07;;;;;;;45.60;25.33;;;3.70;99.90;;;;;;6213417;23;20393;-81
2022/03/03 09:10:33;;;;;;;47.63;26.08;;;3.90;99.90;;;;;;6212602;23;20049;-80
2022/03/03 09:13:00;;;;;;;43.78;24.70;;;4.20;99.90;;;;;;6213396;23;20016;-81
2022/03/03 09:15:26;;;;;;;41.08;24.83;;;4.40;99.90;;;;;;6186289;23;20088;-81
2022/03/03 09:17:52;;;;;;;46.33;25.23;;;5.00;99.90;;;;;;6213266;23;20052;-82
2022/03/03 09:20:17;;;;;;;42.88;24.27;;;4.70;99.90;;;;;;6213140;23;20026;-81
2022/03/03 09:22:45;;;;;;;40.78;23.13;;;4.90;99.90;;;;;;6212575;23;20027;-81
2022/03/03 09:25:10;;;;;;;39.72;23.92;;;5.10;99.90;;;;;;6213105;23;20055;-81
2022/03/03 09:27:37;;;;;;;38.42;22.88;;;5.30;99.90;;;;;;6185410;23;20338;-81
2022/03/03 09:30:05;;;;;;;40.67;24.17;;;5.20;99.90;;;;;;6185789;23;20798;-83
2022/03/03 09:32:31;;;;;;;41.10;23.98;;;5.70;99.90;;;;;;6212620;23;20020;-82
2022/03/03 09:34:56;;;;;;;38.20;22.65;;;6.70;99.90;;;;;;6212605;23;20095;-83
2022/03/03 09:37:22;;;;;;;36.08;21.58;;;6.10;99.90;;;;;;6212631;23;20024;-82
2022/03/03 09:39:49;;;;;;;36.33;21.85;;;6.20;99.90;;;;;;6212673;23;20055;-83
2022/03/03 09:42:15;;;;;;;40.75;20.92;;;6.30;99.90;;;;;;6185959;23;20025;-82
2022/03/03 09:44:41;;;;;;;35.05;21.08;;;7.20;99.90;;;;;;6212807;23;20075;-82
2022/03/03 09:47:08;;;;;;;30.70;20.23;;;6.60;99.90;;;;;;6212203;23;20374;-83
2022/03/03 09:49:34;;;;;;;33.00;19.92;;;7.40;99.90;;;;;;6212791;23;20023;-82
2022/03/03 09:52:01;;;;;;;31.42;19.27;;;6.80;99.90;;;;;;6160545;23;20666;-83
2022/03/03 09:54:26;;;;;;;36.42;20.55;;;7.50;99.90;;;;;;6212758;23;20020;-83
2022/03/03 09:56:52;;;;;;;32.53;20.33;;;8.20;99.90;;;;;;6212730;23;20330;-82
2022/03/03 09:59:18;;;;;;;33.65;19.98;;;7.40;99.90;;;;;;6185420;23;20087;-83
2022/03/03 10:01:46;;;;;;;34.55;19.73;;;7.90;99.90;;;;;;6212772;23;20021;-83
2022/03/03 10:04:21;;;;;;;33.72;19.92;;;7.60;99.90;;;;;;6210751;23;20056;-82
2022/03/03 10:06:48;;;;;;;30.98;19.42;;;7.70;99.90;;;;;;6212771;23;20016;-83
2022/03/03 10:09:16;;;;;;;31.75;18.83;;;7.90;99.90;;;;;;6212701;23;20017;-83
2022/03/03 10:11:47;;;;;;;29.27;17.70;;;8.70;99.90;;;;;;6212631;23;20013;-83
2022/03/03 10:14:14;;;;;;;27.60;17.75;;;8.40;99.90;;;;;;6184972;23;20071;-83
2022/03/03 10:16:47;;;;;;;30.17;18.95;;;8.40;99.90;;;;;;6212637;23;20066;-82
2022/03/03 10:19:13;;;;;;;32.22;19.48;;;8.60;99.90;;;;;;6212549;23;20327;-83
2022/03/03 10:21:41;;;;;;;29.77;19.02;;;9.50;99.90;;;;;;6185288;23;20027;-83
2022/03/03 10:24:16;;;;;;;27.42;17.88;;;9.20;99.90;;;;;;6212729;23;20088;-83
2022/03/03 10:26:44;;;;;;;27.95;18.10;;;9.10;99.90;;;;;;6212917;23;20016;-83
2022/03/03 10:29:18;;;;;;;26.67;17.20;;;9.00;99.90;;;;;;6212424;23;20032;-81
2022/03/03 10:31:49;;;;;;;32.47;18.08;;;9.30;99.90;;;;;;6212965;23;20009;-83
2022/03/03 10:34:21;;;;;;;26.55;17.90;;;10.30;99.90;;;;;;6212909;23;20127;-83
2022/03/03 10:36:56;;;;;;;26.48;17.30;;;9.60;99.90;;;;;;6185431;23;20469;-83
2022/03/03 10:39:22;;;;;;;26.10;16.15;;;10.20;99.90;;;;;;6212126;23;20039;-83
2022/03/03 10:41:51;;;;;;;25.50;17.05;;;10.60;99.90;;;;;;6212705;23;20087;-82
2022/03/03 10:44:37;;;;;;;24.48;16.60;;;10.00;99.90;;;;;;6185601;23;20494;-83
2022/03/03 10:47:08;;;;;;;24.65;16.17;;;10.40;99.90;;;;;;6211633;23;20027;-83
2022/03/03 10:49:40;;;;;;;25.88;16.08;;;10.40;99.90;;;;;;6212154;23;20087;-83
2022/03/03 10:52:17;;;;;;;25.90;16.50;;;10.40;99.90;;;;;;6212110;23;20076;-82
2022/03/03 10:55:05;;;;;;;22.38;14.70;;;11.10;99.90;;;;;;6212694;23;20068;-83
2022/03/03 10:57:40;;;;;;;22.27;14.52;;;10.90;99.90;;;;;;6185380;23;20020;-83
2022/03/03 11:00:12;;;;;;;23.42;15.05;;;11.10;99.90;;;;;;6211945;23;20043;-84
2022/03/03 11:02:41;;;;;;;21.55;15.07;;;11.20;99.90;;;;;;6211994;23;20048;-84
2022/03/03 11:05:09;;;;;;;19.88;14.25;;;11.30;99.90;;;;;;6212282;23;20036;-82
2022/03/03 11:07:37;;;;;;;19.42;13.82;;;11.50;99.90;;;;;;6212534;23;20319;-87
2022/03/03 11:10:04;;;;;;;20.25;13.25;;;12.20;99.90;;;;;;6185968;23;20055;-88
2022/03/03 11:12:29;;;;;;;20.58;14.10;;;11.90;99.90;;;;;;6160692;23;20020;-85
2022/03/03 11:14:56;;;;;;;20.67;13.68;;;12.20;99.90;;;;;;6184857;23;20023;-84
2022/03/03 11:17:22;;;;;;;18.95;14.27;;;12.90;99.90;;;;;;6211732;23;20067;-85
2022/03/03 11:19:51;;;;;;;20.88;14.65;;;13.30;99.90;;;;;;6185164;23;20028;-84
2022/03/03 11:22:17;;;;;;;25.33;13.82;;;12.90;99.90;;;;;;6185056;23;20020;-84
2022/03/03 11:24:44;;;;;;;22.10;14.50;;;13.10;99.90;;;;;;6211965;23;20025;-84
2022/03/03 11:27:11;;;;;;;17.92;12.63;;;13.20;99.40;;;;;;6184959;23;20079;-86
2022/03/03 11:29:40;;;;;;;19.30;13.38;;;13.10;97.60;;;;;;6212316;23;20013;-88
2022/03/03 11:32:17;;;;;;;20.00;13.43;;;13.40;98.30;;;;;;6211386;23;20318;-85
2022/03/03 11:34:49;;;;;;;23.90;14.98;;;13.20;98.80;;;;;;6185439;23;20452;-83
2022/03/03 11:37:21;;;;;;;22.20;15.65;;;13.20;97.60;;;;;;6184637;23;20464;-83
2022/03/03 11:39:54;;;;;;;26.75;15.88;;;13.60;98.10;;;;;;6211783;23;20016;-84
2022/03/03 11:42:30;;;;;;;21.85;15.45;;;13.10;97.70;;;;;;6184966;23;20056;-82
2022/03/03 11:45:16;;;;;;;20.45;14.60;;;13.00;97.90;;;;;;6211850;23;20027;-83
2022/03/03 11:47:46;;;;;;;21.85;14.60;;;12.90;98.10;;;;;;6211473;23;20020;-83
2022/03/03 11:50:19;;;;;;;20.52;14.85;;;12.90;97.80;;;;;;6211785;23;20020;-84
2022/03/03 11:52:49;;;;;;;20.52;14.80;;;13.10;97.50;;;;;;6211812;23;20016;-83
2022/03/03 11:55:34;;;;;;;19.83;14.23;;;13.10;95.70;;;;;;6211786;23;20037;-83
2022/03/03 11:58:13;;;;;;;24.50;15.80;;;13.30;96.80;;;;;;6211729;23;20016;-83
2022/03/03 12:00:42;;;;;;;22.27;15.60;;;13.60;98.10;;;;;;6184612;23;20025;-84
2022/03/03 12:03:10;;;;;;;22.95;15.45;;;13.60;96.00;;;;;;6211370;23;20020;-85
2022/03/03 12:05:41;;;;;;;24.58;16.02;;;13.80;97.50;;;;;;6210420;23;20381;-82
2022/03/03 12:08:16;;;;;;;21.23;14.38;;;14.10;97.30;;;;;;6181841;23;20472;-81
2022/03/03 12:11:00;;;;;;;26.15;14.75;;;13.80;97.00;;;;;;6213010;23;20020;-83
2022/03/03 12:13:33;;;;;;;20.95;14.73;;;13.70;94.60;;;;;;6213830;23;20021;-85
2022/03/03 12:16:13;;;;;;;24.98;15.70;;;13.70;95.40;;;;;;6212782;23;20021;-84
2022/03/03 12:18:39;;;;;;;22.02;15.57;;;13.60;95.30;;;;;;6212996;23;20021;-83
2022/03/03 12:21:29;;;;;;;24.25;15.88;;;13.60;94.70;;;;;;6186457;23;20017;-84
2022/03/03 12:24:22;;;;;;;20.92;14.77;;;13.40;93.70;;;;;;6160576;23;20409;-83
2022/03/03 12:26:56;;;;;;;24.55;15.38;;;13.40;94.50;;;;;;6185560;23;20019;-83
2022/03/03 12:29:33;;;;;;;22.05;15.65;;;13.40;94.90;;;;;;6213064;23;20020;-82
2022/03/03 12:32:21;;;;;;;21.98;15.57;;;13.50;96.00;;;;;;6213447;23;20017;-83
2022/03/03 12:34:47;;;;;;;22.13;15.80;;;13.60;94.70;;;;;;6159655;23;20021;-81
2022/03/03 12:37:13;;;;;;;26.30;16.10;;;13.70;95.10;;;;;;6212692;23;20480;-84